Airfield :
LOGIN :

Register | Disclaimer

   EN    FR    IT 

 










Legend :    VFR   Marginal VFR   IFR   Intensive IFR   Very Intensive IFR
Visi :
Ceiling :
>= 8 km
>= 3000ft
5 to 8 km
1000 to 3000 ft
1500m to 5 km
500 to 1000 ft
800 to 1500m
200 to 500 ft
< 800m
< 200 ft
Symbols :   Thunderstorms  Fog  Heavy snow  Heavy precipitations  Wind > 20 kt
SIGMETs :     Misc.  Thunderstorms  Icing  Turbulence  Mountain Waves  Volcanic Ashes







- Airport Elevation : 400 ft
- IATA code : BNX


LQBK - Banja Luka

CURRENT METAR :
  • 152330Z 00000KT CAVOK 13/12 Q1021 NOSIG

EXPIRED METARs :
  • 152300Z 36002KT CAVOK 13/12 Q1022 NOSIG
  • 152230Z VRB01KT CAVOK 14/13 Q1022 NOSIG
  • 152200Z 18002KT CAVOK 14/13 Q1022 NOSIG
  • 152130Z 16002KT CAVOK 14/13 Q1022 NOSIG
  • 152100Z 17002KT CAVOK 14/13 Q1022 NOSIG

TAF TAF LQBK
Valid from the 16 at 00:00 until the 17 at 00:00 UTC


152300Z 1600/1624 17005KT CAVOK TX28/1613Z TN10/1604Z
PROB30
TEMPO 1603/1607 3000 BR
No reported NOTAMs for that airfield.



MET'MAP, your aeronautical weather chart ! - Copyright ORBIFLY December 2007 - Disclaimer

ORBIFLY MET'MAP TEAM :

Programming & Development : Alexandra Zaïnal
Concept & Development : Baudouin d'Aumeries
Co-Development & Prog : Marc-Olivier Méhu
Technical & hardware support : Manuel Goepfert

Contact : metmap@orbifly.com




SOURCES & CREDITS :

   NOAA